Time;durP1;ratioP1;P1;durP2;ratioP2;P2;SDS_P1;SDS_P2;PMS_P1;PMS_P2;Temp;Humidity;BMP_temperature;BMP_pressure;BME280_temperature;BME280_humidity;BME280_pressure;Samples;Min_cycle;Max_cycle;Signal;HPM_P1;HPM_P2
2023/07/02 00:01:16;;;;;;;1.25;0.80;;;;;;;23.58;52.97;99666.88;4535573;28;20290;-63
2023/07/02 00:03:26;;;;;;;0.70;0.70;;;;;;;23.57;53.26;99671.81;4536282;28;20033;-63
2023/07/02 00:05:37;;;;;;;0.80;0.80;;;;;;;23.60;53.40;99661.53;4535322;28;20032;-63
2023/07/02 00:07:47;;;;;;;1.20;0.75;;;;;;;23.58;53.66;99663.97;4535902;28;20493;-64
2023/07/02 00:09:58;;;;;;;0.70;0.70;;;;;;;23.56;52.93;99667.28;4536069;28;20048;-64
2023/07/02 00:12:08;;;;;;;1.50;1.08;;;;;;;23.57;53.20;99666.06;4536252;28;20078;-64
2023/07/02 00:14:19;;;;;;;0.80;0.80;;;;;;;23.55;53.04;99659.03;4536724;28;20039;-63
2023/07/02 00:16:29;;;;;;;0.80;0.80;;;;;;;23.55;53.39;99656.16;4535738;28;20036;-64
2023/07/02 00:18:40;;;;;;;0.85;0.80;;;;;;;23.57;53.10;99650.84;4536033;28;20079;-63
2023/07/02 00:20:50;;;;;;;0.70;0.70;;;;;;;23.60;53.14;99661.53;4536531;28;20063;-63
2023/07/02 00:23:01;;;;;;;0.63;0.63;;;;;;;23.55;53.62;99650.41;4536417;28;20367;-64
2023/07/02 00:25:13;;;;;;;0.70;0.70;;;;;;;23.54;53.02;99646.72;4533981;28;20493;-64
2023/07/02 00:27:23;;;;;;;0.70;0.70;;;;;;;23.53;53.74;99641.38;4536471;28;20036;-63
2023/07/02 00:29:33;;;;;;;1.40;0.90;;;;;;;23.56;52.97;99649.19;4534853;28;20497;-63
2023/07/02 00:31:44;;;;;;;1.02;0.90;;;;;;;23.55;53.14;99650.41;4535126;28;20072;-63
2023/07/02 00:33:54;;;;;;;1.10;1.00;;;;;;;23.53;53.30;99652.91;4536131;28;20053;-63
2023/07/02 00:36:05;;;;;;;0.70;0.70;;;;;;;23.55;52.88;99659.03;4534144;28;20057;-63
2023/07/02 00:38:15;;;;;;;0.80;0.80;;;;;;;23.56;52.98;99660.72;4534484;28;20131;-64
2023/07/02 00:40:27;;;;;;;0.70;0.70;;;;;;;23.51;53.10;99643.84;4535985;28;20041;-63
2023/07/02 00:42:37;;;;;;;1.25;0.80;;;;;;;23.55;52.87;99650.41;4524271;28;20160;-64
2023/07/02 00:44:48;;;;;;;0.77;0.77;;;;;;;23.56;53.22;99657.84;4534123;28;20025;-63
2023/07/02 00:46:58;;;;;;;1.00;0.80;;;;;;;23.51;53.19;99652.47;4523149;28;20783;-63
2023/07/02 00:49:09;;;;;;;0.80;0.80;;;;;;;23.53;52.73;99652.91;4533676;28;20032;-63
2023/07/02 00:51:25;;;;;;;0.73;0.70;;;;;;;23.56;52.65;99660.72;4535896;28;20870;-63
2023/07/02 00:53:35;;;;;;;0.70;0.70;;;;;;;23.55;53.14;99659.03;4535510;28;20622;-63
2023/07/02 00:55:46;;;;;;;1.30;0.70;;;;;;;23.55;52.58;99656.16;4535134;28;20051;-63
2023/07/02 00:57:56;;;;;;;0.70;0.70;;;;;;;23.56;52.97;99657.84;4534560;28;20049;-63
2023/07/02 01:00:07;;;;;;;0.77;0.77;;;;;;;23.48;53.08;99639.69;4535999;28;20920;-63
2023/07/02 01:02:18;;;;;;;1.65;0.80;;;;;;;23.51;52.35;99652.47;4535314;28;20136;-63
2023/07/02 01:04:28;;;;;;;0.90;0.90;;;;;;;23.52;52.76;99648.34;4535408;28;20037;-64
2023/07/02 01:06:41;;;;;;;0.70;0.70;;;;;;;23.50;53.08;99645.88;4534690;28;20029;-63
2023/07/02 01:08:54;;;;;;;0.90;0.90;;;;;;;23.49;52.78;99652.06;4534375;28;20053;-63
2023/07/02 01:11:04;;;;;;;0.65;0.65;;;;;;;23.52;52.97;99649.19;4533842;28;20032;-64
2023/07/02 01:13:19;;;;;;;0.70;0.70;;;;;;;23.52;52.52;99654.94;4534578;28;20140;-63
2023/07/02 01:15:31;;;;;;;1.13;0.80;;;;;;;23.53;52.83;99650.00;4535313;28;20029;-63
2023/07/02 01:17:42;;;;;;;0.70;0.70;;;;;;;23.50;52.84;99640.13;4535522;28;20049;-63
2023/07/02 01:19:58;;;;;;;0.85;0.85;;;;;;;23.53;52.80;99639.28;4535029;28;21586;-63
2023/07/02 01:22:10;;;;;;;0.60;0.60;;;;;;;23.53;52.91;99639.28;4523371;28;20037;-63
2023/07/02 01:24:21;;;;;;;0.75;0.75;;;;;;;23.48;52.56;99633.13;4534274;28;20576;-63
2023/07/02 01:26:33;;;;;;;1.05;0.95;;;;;;;23.52;52.22;99633.94;4518384;28;20041;-63
2023/07/02 01:28:44;;;;;;;1.35;1.00;;;;;;;23.52;52.36;99649.19;4536087;28;20059;-64
2023/07/02 01:30:55;;;;;;;0.90;0.90;;;;;;;23.54;52.44;99651.66;4533266;28;20096;-64
2023/07/02 01:33:05;;;;;;;0.88;0.88;;;;;;;23.47;52.66;99632.31;4523074;28;20087;-63
2023/07/02 01:35:16;;;;;;;0.70;0.70;;;;;;;23.46;52.67;99629.84;4535147;28;20708;-64
2023/07/02 01:37:26;;;;;;;0.85;0.80;;;;;;;23.53;52.66;99641.38;4534176;28;20336;-64
2023/07/02 01:39:37;;;;;;;1.00;0.90;;;;;;;23.48;52.57;99631.06;4534610;28;20040;-64
2023/07/02 01:41:55;;;;;;;0.70;0.70;;;;;;;23.50;52.91;99637.25;4535049;28;20114;-63
2023/07/02 01:44:06;;;;;;;0.93;0.93;;;;;;;23.31;52.70;99608.00;4536535;28;20655;-63
2023/07/02 01:46:16;;;;;;;0.90;0.90;;;;;;;23.49;52.75;99638.47;4535185;28;20389;-64
2023/07/02 01:48:27;;;;;;;1.02;0.93;;;;;;;23.47;52.11;99640.09;4535888;28;20138;-63
2023/07/02 01:50:37;;;;;;;0.88;0.80;;;;;;;23.50;53.10;99639.28;4534074;28;20028;-63
2023/07/02 01:52:47;;;;;;;1.08;0.82;;;;;;;23.47;52.58;99646.69;4532434;28;20124;-64
2023/07/02 01:54:59;;;;;;;0.85;0.80;;;;;;;23.48;52.04;99641.78;4534515;28;20120;-63
2023/07/02 01:57:09;;;;;;;0.88;0.88;;;;;;;23.47;52.15;99651.63;4535152;28;20460;-63
2023/07/02 01:59:20;;;;;;;0.80;0.80;;;;;;;23.50;52.47;99653.69;4533543;28;20040;-63
2023/07/02 02:01:32;;;;;;;0.85;0.85;;;;;;;23.49;52.63;99649.16;4531669;28;20102;-63
2023/07/02 02:03:43;;;;;;;0.70;0.70;;;;;;;23.48;52.72;99647.53;4535180;28;20029;-63
2023/07/02 02:05:53;;;;;;;0.80;0.80;;;;;;;23.48;52.66;99636.03;4534719;28;20487;-63
2023/07/02 02:08:04;;;;;;;0.95;0.85;;;;;;;23.47;52.63;99619.94;4534838;28;20029;-64
2023/07/02 02:10:15;;;;;;;1.13;1.02;;;;;;;23.47;52.34;99611.31;4535130;28;20033;-63
2023/07/02 02:12:28;;;;;;;0.95;0.90;;;;;;;23.42;51.99;99603.09;4533448;28;20131;-63
2023/07/02 02:14:38;;;;;;;1.13;1.10;;;;;;;23.47;52.08;99622.81;4523217;28;20037;-63
2023/07/02 02:16:49;;;;;;;0.90;0.90;;;;;;;23.42;52.19;99614.63;4540667;28;20033;-63
2023/07/02 02:19:00;;;;;;;1.15;0.98;;;;;;;23.46;51.78;99630.66;4537908;28;20041;-63
2023/07/02 02:21:10;;;;;;;0.93;0.90;;;;;;;23.47;52.16;99626.53;4540515;28;20941;-63
2023/07/02 02:23:21;;;;;;;1.17;0.80;;;;;;;23.43;52.28;99616.25;4539432;28;20033;-63
2023/07/02 02:25:31;;;;;;;1.00;0.90;;;;;;;23.47;52.33;99619.94;4538573;28;20037;-63
2023/07/02 02:27:43;;;;;;;1.10;1.00;;;;;;;23.46;52.80;99621.19;4540285;28;20188;-63
2023/07/02 02:29:54;;;;;;;1.00;0.90;;;;;;;23.46;51.97;99622.03;4538245;28;20579;-63
2023/07/02 02:32:04;;;;;;;1.00;0.80;;;;;;;23.47;52.37;99622.81;4538998;28;20131;-63
2023/07/02 02:34:15;;;;;;;1.48;1.15;;;;;;;23.46;51.70;99629.84;4541068;28;20029;-63
2023/07/02 02:36:25;;;;;;;1.25;1.08;;;;;;;23.46;52.10;99632.72;4539390;28;20033;-63
2023/07/02 02:38:37;;;;;;;1.10;1.00;;;;;;;23.45;51.96;99631.88;4537603;28;20063;-63
2023/07/02 02:40:48;;;;;;;1.17;1.08;;;;;;;23.45;52.09;99634.75;4538673;28;20079;-64
2023/07/02 02:43:02;;;;;;;1.55;1.00;;;;;;;23.45;51.78;99639.72;4555418;28;20040;-64
2023/07/02 02:45:12;;;;;;;1.10;0.85;;;;;;;23.45;51.95;99648.34;4528972;28;20132;-63
2023/07/02 02:47:23;;;;;;;0.88;0.85;;;;;;;23.44;52.03;99652.44;4539924;28;20021;-63
2023/07/02 02:49:33;;;;;;;1.35;1.00;;;;;;;23.42;51.96;99649.97;4540516;28;20447;-63
2023/07/02 02:51:44;;;;;;;0.88;0.82;;;;;;;23.41;52.49;99648.34;4539695;28;20033;-63
2023/07/02 02:53:54;;;;;;;1.02;0.80;;;;;;;23.43;52.52;99656.56;4539404;28;20106;-62
2023/07/02 02:56:05;;;;;;;0.98;0.88;;;;;;;23.44;52.43;99658.22;4541024;28;20770;-63
2023/07/02 02:58:15;;;;;;;0.85;0.80;;;;;;;23.40;52.13;99651.63;4538702;28;20183;-63
2023/07/02 03:00:25;;;;;;;1.52;1.25;;;;;;;23.45;52.19;99659.88;4538808;28;20111;-64
2023/07/02 03:02:36;;;;;;;1.23;1.00;;;;;;;23.46;51.94;99664.41;4526601;28;20037;-63
2023/07/02 03:04:49;;;;;;;1.05;0.85;;;;;;;23.41;52.22;99653.28;4529235;28;20037;-63
2023/07/02 03:06:59;;;;;;;1.92;1.17;;;;;;;23.43;51.80;99656.56;4539715;28;20064;-63
2023/07/02 03:09:10;;;;;;;1.20;1.00;;;;;;;23.41;51.72;99661.91;4541244;28;20144;-63
2023/07/02 03:11:20;;;;;;;1.20;1.05;;;;;;;23.37;51.40;99647.50;4539746;28;20037;-63
2023/07/02 03:13:31;;;;;;;1.13;0.95;;;;;;;23.45;52.01;99654.13;4539074;28;20036;-63
2023/07/02 03:15:42;;;;;;;1.30;1.00;;;;;;;23.43;51.49;99651.66;4520368;28;20472;-63
2023/07/02 03:17:52;;;;;;;1.50;1.25;;;;;;;23.43;51.68;99640.13;4538102;28;20793;-63
2023/07/02 03:20:04;;;;;;;1.48;1.10;;;;;;;23.43;51.58;99645.88;4539914;28;20064;-63
2023/07/02 03:22:14;;;;;;;1.42;1.15;;;;;;;23.42;51.14;99631.91;4538637;28;20365;-63
2023/07/02 03:24:25;;;;;;;1.30;1.10;;;;;;;23.41;51.98;99644.63;4539011;28;20362;-63
2023/07/02 03:26:35;;;;;;;1.30;1.10;;;;;;;23.39;51.17;99650.81;4538205;28;20060;-63
2023/07/02 03:28:45;;;;;;;1.77;1.20;;;;;;;23.42;51.21;99666.47;4536600;28;20033;-63
2023/07/02 03:30:56;;;;;;;1.30;1.10;;;;;;;23.36;51.14;99650.78;4536897;28;20108;-63
2023/07/02 03:33:08;;;;;;;1.50;1.30;;;;;;;23.42;51.03;99661.50;4536291;28;20079;-63
2023/07/02 03:35:19;;;;;;;1.30;1.20;;;;;;;23.38;51.71;99649.16;4535996;28;20087;-63
2023/07/02 03:37:29;;;;;;;1.13;0.95;;;;;;;23.40;51.18;99658.19;4536633;28;20060;-63
2023/07/02 03:39:40;;;;;;;1.48;1.25;;;;;;;23.36;50.66;99656.56;4537426;28;20490;-63
2023/07/02 03:41:50;;;;;;;1.33;1.23;;;;;;;23.39;50.90;99662.31;4536374;28;20140;-63
2023/07/02 03:44:01;;;;;;;2.13;1.10;;;;;;;23.40;51.26;99663.16;4536844;28;20734;-63
2023/07/02 03:46:11;;;;;;;1.65;1.40;;;;;;;23.40;51.04;99668.91;4537002;28;20063;-63
2023/07/02 03:48:22;;;;;;;1.60;1.50;;;;;;;23.39;51.05;99661.50;4536514;28;20440;-63
2023/07/02 03:50:32;;;;;;;1.60;1.30;;;;;;;23.36;50.67;99668.06;4536101;28;20149;-63
2023/07/02 03:52:43;;;;;;;2.08;1.50;;;;;;;23.19;50.69;99648.69;4535745;28;20035;-63
2023/07/02 03:54:53;;;;;;;2.83;1.52;;;;;;;23.33;50.47;99669.72;4536145;28;20053;-63
2023/07/02 03:57:04;;;;;;;1.95;1.50;;;;;;;23.40;50.55;99691.97;4535771;28;20040;-63
2023/07/02 03:59:14;;;;;;;1.73;1.40;;;;;;;23.38;50.29;99688.66;4536854;28;20037;-63
2023/07/02 04:01:25;;;;;;;2.00;1.60;;;;;;;23.40;50.33;99689.06;4535842;28;20060;-62
2023/07/02 04:03:35;;;;;;;1.73;1.27;;;;;;;23.36;50.78;99691.09;4536105;28;20044;-63
2023/07/02 04:05:46;;;;;;;1.73;1.50;;;;;;;23.31;50.21;99677.09;4536769;28;21029;-63
2023/07/02 04:07:56;;;;;;;1.90;1.40;;;;;;;23.39;50.21;99696.03;4537378;28;20064;-63
2023/07/02 04:10:07;;;;;;;1.92;1.40;;;;;;;23.40;50.43;99691.97;4535691;28;20048;-63
2023/07/02 04:12:18;;;;;;;2.03;1.50;;;;;;;23.33;50.41;99687.00;4535315;28;20033;-63
2023/07/02 04:14:28;;;;;;;2.00;1.55;;;;;;;23.34;49.70;99691.50;4537350;28;20037;-63
2023/07/02 04:16:38;;;;;;;1.85;1.40;;;;;;;23.35;50.51;99689.47;4537348;28;20074;-63
2023/07/02 04:18:49;;;;;;;1.90;1.50;;;;;;;23.36;50.07;99694.00;4535588;28;20044;-63
2023/07/02 04:21:01;;;;;;;1.85;1.55;;;;;;;23.37;49.99;99699.34;4534027;28;20041;-63
2023/07/02 04:23:11;;;;;;;2.25;1.67;;;;;;;23.35;49.91;99701.00;4523539;28;21023;-63
2023/07/02 04:25:22;;;;;;;2.58;1.50;;;;;;;23.34;50.53;99694.41;4536542;28;20044;-63
2023/07/02 04:27:32;;;;;;;2.63;1.60;;;;;;;23.33;49.95;99704.28;4535999;28;20041;-63
2023/07/02 04:29:47;;;;;;;1.60;1.38;;;;;;;23.33;50.65;99703.44;4535143;28;20029;-63
2023/07/02 04:31:57;;;;;;;1.83;1.30;;;;;;;23.37;50.51;99710.06;4536877;28;20033;-64
2023/07/02 04:34:07;;;;;;;1.92;1.40;;;;;;;23.37;49.83;99712.94;4536194;28;20049;-63
2023/07/02 04:36:18;;;;;;;2.72;1.88;;;;;;;23.36;50.03;99714.16;4536644;28;20060;-63
2023/07/02 04:38:29;;;;;;;2.97;2.33;;;;;;;23.31;49.32;99711.66;4535556;28;20041;-63
2023/07/02 04:40:41;;;;;;;2.65;1.80;;;;;;;23.32;49.32;99707.56;4537089;28;20164;-63
2023/07/02 04:42:57;;;;;;;2.95;2.03;;;;;;;23.36;49.02;99719.91;4535376;28;20787;-64
2023/07/02 04:45:08;;;;;;;2.23;1.60;;;;;;;23.32;49.40;99719.09;4535677;28;20179;-64
2023/07/02 04:47:18;;;;;;;2.45;1.90;;;;;;;23.34;49.55;99722.38;4536394;28;20281;-64
2023/07/02 04:49:29;;;;;;;2.92;1.98;;;;;;;23.34;49.35;99722.38;4535925;28;20048;-63
2023/07/02 04:51:39;;;;;;;2.50;1.80;;;;;;;23.35;49.39;99736.38;4536556;28;20102;-64
2023/07/02 04:53:50;;;;;;;2.47;2.00;;;;;;;23.32;49.18;99736.38;4536029;28;20454;-63
2023/07/02 04:56:01;;;;;;;2.42;1.98;;;;;;;23.34;49.38;99739.66;4535682;28;20048;-64
2023/07/02 04:58:11;;;;;;;2.72;2.00;;;;;;;23.27;49.19;99728.94;4535148;28;20033;-64
2023/07/02 05:00:22;;;;;;;3.70;2.10;;;;;;;23.31;49.52;99732.66;4534917;28;20029;-64
2023/07/02 05:02:32;;;;;;;3.40;2.35;;;;;;;23.33;48.89;99738.00;4536486;28;20079;-63
2023/07/02 05:04:43;;;;;;;2.53;2.10;;;;;;;23.32;49.68;99736.38;4536740;28;20821;-64
2023/07/02 05:06:53;;;;;;;3.67;2.53;;;;;;;23.33;49.24;99749.53;4535698;28;20668;-65
2023/07/02 05:09:03;;;;;;;2.70;1.98;;;;;;;23.34;49.42;99745.44;4537174;28;20422;-65
2023/07/02 05:11:14;;;;;;;3.40;2.03;;;;;;;23.32;50.33;99748.72;4535977;28;20832;-64
2023/07/02 05:13:24;;;;;;;2.85;2.38;;;;;;;23.31;49.76;99744.16;4536337;28;20102;-65
2023/07/02 05:15:35;;;;;;;3.28;2.28;;;;;;;23.34;49.34;99752.00;4536190;28;20065;-64
2023/07/02 05:17:45;;;;;;;2.63;2.17;;;;;;;23.34;49.64;99759.81;4535805;28;20064;-64
2023/07/02 05:19:56;;;;;;;3.03;2.33;;;;;;;23.33;49.99;99761.88;4535779;28;20037;-64
2023/07/02 05:22:06;;;;;;;3.28;2.33;;;;;;;23.28;49.71;99753.63;4536355;28;20140;-63
2023/07/02 05:24:17;;;;;;;3.00;2.60;;;;;;;23.28;49.59;99759.38;4537558;28;20512;-64
2023/07/02 05:26:27;;;;;;;2.70;1.98;;;;;;;23.34;50.10;99777.09;4535962;28;20061;-64
2023/07/02 05:28:38;;;;;;;3.30;2.28;;;;;;;23.29;49.77;99769.66;4536299;28;20033;-63
2023/07/02 05:30:48;;;;;;;3.30;2.42;;;;;;;23.26;49.74;99761.84;4537123;28;20416;-63
2023/07/02 05:32:59;;;;;;;3.22;2.45;;;;;;;23.33;49.32;99775.44;4535589;28;20044;-64
2023/07/02 05:35:09;;;;;;;3.13;2.33;;;;;;;23.32;49.29;99776.69;4535681;28;20758;-63
2023/07/02 05:37:20;;;;;;;3.75;2.38;;;;;;;23.32;49.39;99776.69;4536421;28;20024;-63
2023/07/02 05:39:31;;;;;;;3.17;2.30;;;;;;;23.29;49.81;99778.28;4535184;28;20036;-63
2023/07/02 05:41:41;;;;;;;3.60;2.30;;;;;;;23.32;49.84;99779.56;4534371;28;20032;-63
2023/07/02 05:43:52;;;;;;;3.67;2.53;;;;;;;23.31;49.58;99780.75;4534760;28;20033;-63
2023/07/02 05:46:06;;;;;;;3.30;2.30;;;;;;;23.31;50.07;99789.41;4537340;28;20033;-63
2023/07/02 05:48:16;;;;;;;3.05;2.17;;;;;;;23.32;50.17;99788.19;4536106;28;20063;-63
2023/07/02 05:50:26;;;;;;;2.88;2.22;;;;;;;23.32;49.83;99793.94;4535189;28;20036;-63
2023/07/02 05:52:37;;;;;;;3.03;2.15;;;;;;;23.27;50.10;99792.28;4533438;28;20059;-63
2023/07/02 05:54:48;;;;;;;3.38;2.35;;;;;;;23.28;49.73;99798.84;4534866;28;20024;-62
2023/07/02 05:56:58;;;;;;;3.13;2.60;;;;;;;23.26;49.33;99796.38;4535050;28;20052;-63
2023/07/02 05:59:08;;;;;;;3.60;2.75;;;;;;;23.30;49.08;99803.00;4535955;28;20071;-63
2023/07/02 06:01:19;;;;;;;3.42;2.10;;;;;;;23.27;49.02;99797.22;4534334;28;20099;-63
2023/07/02 06:03:29;;;;;;;2.95;2.22;;;;;;;23.26;49.81;99796.38;4534439;28;20856;-63
2023/07/02 06:05:40;;;;;;;3.40;2.30;;;;;;;23.31;49.48;99803.81;4534638;28;20547;-63
2023/07/02 06:07:50;;;;;;;3.58;2.50;;;;;;;23.25;49.42;99799.63;4534100;28;20514;-63
2023/07/02 06:10:01;;;;;;;3.90;2.50;;;;;;;23.25;49.31;99811.16;4534969;28;20072;-62
2023/07/02 06:12:12;;;;;;;3.88;2.70;;;;;;;23.28;48.74;99814.09;4533469;28;20544;-64
2023/07/02 06:14:25;;;;;;;3.35;2.53;;;;;;;23.25;48.95;99806.25;4534179;28;20029;-63
2023/07/02 06:16:35;;;;;;;3.92;2.55;;;;;;;23.28;49.27;99816.13;4534421;28;20591;-63
2023/07/02 06:18:46;;;;;;;3.20;2.40;;;;;;;23.28;49.04;99819.84;4534850;28;20033;-63
2023/07/02 06:20:56;;;;;;;3.75;2.70;;;;;;;23.25;48.68;99816.91;4535113;28;20040;-63
2023/07/02 06:23:07;;;;;;;3.55;2.47;;;;;;;23.18;48.72;99811.13;4533432;28;20044;-63
2023/07/02 06:25:17;;;;;;;4.53;2.65;;;;;;;23.27;48.82;99808.75;4535567;28;20532;-63
2023/07/02 06:27:27;;;;;;;3.05;2.53;;;;;;;23.28;49.07;99819.84;4535109;28;20029;-63
2023/07/02 06:29:38;;;;;;;3.20;2.45;;;;;;;23.25;49.20;99816.91;4533880;28;20131;-63
2023/07/02 06:31:49;;;;;;;3.63;2.70;;;;;;;23.29;48.82;99827.25;4534014;28;20044;-63
2023/07/02 06:34:00;;;;;;;3.50;2.47;;;;;;;23.26;48.47;99818.63;4533169;28;20295;-63
2023/07/02 06:36:10;;;;;;;4.72;2.80;;;;;;;23.30;48.42;99830.97;4533090;28;20050;-63
2023/07/02 06:38:21;;;;;;;4.82;2.83;;;;;;;23.28;47.93;99827.66;4534279;28;20040;-64
2023/07/02 06:40:40;;;;;;;4.13;2.88;;;;;;;23.31;47.49;99827.69;4534648;28;20067;-64
2023/07/02 06:42:50;;;;;;;4.22;2.83;;;;;;;23.31;47.84;99829.72;4534848;28;20033;-65
2023/07/02 06:45:02;;;;;;;4.00;2.72;;;;;;;23.27;47.45;99829.72;4534490;28;20048;-64
2023/07/02 06:47:12;;;;;;;4.30;2.90;;;;;;;23.29;47.46;99843.72;4533633;28;20128;-64
2023/07/02 06:49:23;;;;;;;4.45;2.72;;;;;;;23.29;46.98;99835.88;4532716;28;20033;-64
2023/07/02 06:51:34;;;;;;;3.50;2.60;;;;;;;23.28;46.53;99833.41;4534893;28;20580;-64
2023/07/02 06:53:45;;;;;;;4.38;2.70;;;;;;;23.30;46.90;99845.34;4535109;28;20075;-65
2023/07/02 06:55:55;;;;;;;4.28;2.60;;;;;;;23.27;46.70;99844.13;4534684;28;20560;-64
2023/07/02 06:58:07;;;;;;;4.22;2.70;;;;;;;23.28;46.43;99857.28;4534751;28;20056;-64
2023/07/02 07:00:17;;;;;;;4.07;2.85;;;;;;;23.28;46.53;99857.28;4533013;28;20033;-64
2023/07/02 07:02:27;;;;;;;3.70;2.60;;;;;;;23.28;45.91;99863.03;4534594;28;20052;-64
2023/07/02 07:04:38;;;;;;;3.78;2.58;;;;;;;23.29;46.31;99855.25;4537976;28;20048;-64
2023/07/02 07:06:48;;;;;;;3.78;2.35;;;;;;;23.28;46.86;99860.16;4537703;28;20490;-63
2023/07/02 07:08:59;;;;;;;3.55;2.20;;;;;;;23.27;46.76;99849.88;4537058;28;20040;-63
2023/07/02 07:11:09;;;;;;;5.72;2.85;;;;;;;23.28;46.86;99856.44;4538473;28;20032;-63
2023/07/02 07:13:20;;;;;;;3.65;2.40;;;;;;;23.28;47.41;99856.44;4537939;28;20096;-63
2023/07/02 07:15:33;;;;;;;3.50;2.08;;;;;;;23.29;45.99;99852.34;4537345;28;20072;-63
2023/07/02 07:17:44;;;;;;;3.55;2.20;;;;;;;23.28;45.69;99844.94;4538277;28;20588;-62
2023/07/02 07:19:54;;;;;;;2.95;2.30;;;;;;;23.25;46.71;99848.59;4536995;28;20041;-63
2023/07/02 07:22:39;;;;;;;2.95;2.20;;;;;;;23.28;46.21;99851.53;4537304;28;20040;-62
2023/07/02 07:24:49;;;;;;;3.78;2.50;;;;;;;23.25;46.03;99851.47;4535431;28;20071;-62
2023/07/02 07:26:59;;;;;;;3.20;2.28;;;;;;;23.25;46.61;99842.81;4535087;28;20041;-63
2023/07/02 07:29:10;;;;;;;3.58;2.60;;;;;;;23.25;46.13;99849.44;4537021;28;20184;-62
2023/07/02 07:31:20;;;;;;;4.75;3.00;;;;;;;23.27;46.56;99849.06;4537641;28;20769;-62
2023/07/02 07:33:31;;;;;;;3.90;2.90;;;;;;;23.26;47.18;99853.16;4536560;28;20095;-62
2023/07/02 07:35:41;;;;;;;4.55;3.00;;;;;;;23.14;47.23;99830.44;4536758;28;20025;-60
2023/07/02 07:37:52;;;;;;;3.67;2.75;;;;;;;23.26;47.16;99850.28;4538239;28;20140;-62
2023/07/02 07:40:03;;;;;;;5.13;3.42;;;;;;;23.29;47.55;99855.25;4534865;28;20026;-62
2023/07/02 07:42:16;;;;;;;5.43;3.70;;;;;;;23.28;47.10;99856.44;4537568;28;20120;-62
2023/07/02 07:44:30;;;;;;;5.65;4.40;;;;;;;23.28;47.15;99853.56;4536297;28;20643;-62
2023/07/02 07:46:41;;;;;;;5.35;3.88;;;;;;;23.22;47.16;99835.84;4535799;28;20632;-62
2023/07/02 07:48:51;;;;;;;5.25;4.07;;;;;;;23.27;47.54;99854.81;4542317;28;20417;-62
2023/07/02 07:51:02;;;;;;;5.43;4.07;;;;;;;23.28;46.24;99857.28;4535930;28;20095;-62
2023/07/02 07:53:13;;;;;;;6.15;4.20;;;;;;;23.25;45.92;99852.34;4536102;28;20041;-62
2023/07/02 07:55:23;;;;;;;5.22;3.65;;;;;;;23.13;46.29;99831.66;4535637;28;20037;-62
2023/07/02 07:57:36;;;;;;;5.50;4.07;;;;;;;23.27;45.38;99860.56;4537545;28;20523;-62
2023/07/02 07:59:46;;;;;;;5.45;4.53;;;;;;;23.25;44.34;99862.97;4536162;28;20029;-62
2023/07/02 08:01:56;;;;;;;6.80;4.43;;;;;;;23.27;44.80;99863.44;4537994;28;20029;-62
2023/07/02 08:04:07;;;;;;;6.80;4.80;;;;;;;23.23;44.91;99866.25;4535520;28;20095;-62
2023/07/02 08:06:17;;;;;;;5.50;4.88;;;;;;;23.28;44.81;99867.97;4537516;28;20481;-62
2023/07/02 08:08:28;;;;;;;5.68;4.50;;;;;;;23.27;44.86;99872.91;4537586;28;20315;-62
2023/07/02 08:10:38;;;;;;;4.53;3.83;;;;;;;23.27;44.43;99872.09;4517737;28;20579;-62
2023/07/02 08:12:49;;;;;;;5.47;4.15;;;;;;;23.28;44.88;99882.38;4536282;28;20127;-62
2023/07/02 08:15:00;;;;;;;5.43;4.25;;;;;;;23.28;45.19;99888.13;4536417;28;20025;-62
2023/07/02 08:17:10;;;;;;;4.95;4.05;;;;;;;23.23;45.49;99876.97;4537442;28;20037;-62
2023/07/02 08:19:21;;;;;;;5.38;3.95;;;;;;;23.23;45.70;99883.53;4534892;28;20033;-62
2023/07/02 08:21:41;;;;;;;4.65;3.70;;;;;;;23.25;45.69;99894.66;4536975;28;20041;-62
2023/07/02 08:23:51;;;;;;;4.93;3.90;;;;;;;23.26;45.44;99887.72;4535989;28;20036;-62
2023/07/02 08:26:02;;;;;;;5.68;3.80;;;;;;;23.25;45.45;99881.13;4534961;28;20028;-63
2023/07/02 08:28:13;;;;;;;4.50;3.28;;;;;;;23.26;45.23;99896.34;4536593;28;20637;-62
2023/07/02 08:30:23;;;;;;;3.65;2.90;;;;;;;23.26;44.13;99902.13;4535699;28;20431;-62
2023/07/02 08:32:34;;;;;;;4.88;3.28;;;;;;;23.25;43.77;99895.53;4536722;28;20110;-62
2023/07/02 08:34:44;;;;;;;4.22;2.88;;;;;;;23.24;42.81;99895.91;4536111;28;20520;-62
2023/07/02 08:36:55;;;;;;;4.07;3.10;;;;;;;23.24;42.05;99895.91;4536472;28;20029;-62
2023/07/02 08:39:05;;;;;;;5.47;2.85;;;;;;;23.25;41.76;99903.28;4535200;28;20068;-62
2023/07/02 08:41:16;;;;;;;4.40;2.83;;;;;;;23.23;41.96;99905.78;4523509;28;20041;-62
2023/07/02 08:43:27;;;;;;;3.90;2.80;;;;;;;23.27;41.16;99913.22;4536068;28;20100;-62
2023/07/02 08:45:40;;;;;;;4.35;2.88;;;;;;;23.26;41.48;99911.56;4535057;28;20033;-62
2023/07/02 08:47:50;;;;;;;4.57;2.80;;;;;;;23.26;41.07;99916.50;4536641;28;20164;-62
2023/07/02 08:50:03;;;;;;;4.32;2.75;;;;;;;23.27;40.76;99918.16;4537212;28;20090;-62
2023/07/02 08:52:13;;;;;;;3.17;2.47;;;;;;;23.21;40.23;99909.03;4535010;28;20068;-62
2023/07/02 08:54:24;;;;;;;4.38;2.50;;;;;;;23.27;40.52;99919.00;4535526;28;20037;-62
2023/07/02 08:56:34;;;;;;;3.92;2.60;;;;;;;23.28;40.41;99919.78;4533955;28;20075;-62
2023/07/02 08:58:45;;;;;;;4.25;2.58;;;;;;;23.26;40.25;99922.28;4535836;28;20876;-62
2023/07/02 09:01:24;;;;;;;4.05;2.83;;;;;;;23.27;40.34;99919.00;4535232;28;20039;-62
2023/07/02 09:03:38;;;;;;;3.30;2.40;;;;;;;23.27;39.98;99923.91;4526542;28;20592;-62
2023/07/02 09:05:51;;;;;;;3.75;2.72;;;;;;;23.23;39.70;99920.97;4534673;28;20041;-62
2023/07/02 09:08:02;;;;;;;3.72;2.50;;;;;;;23.25;39.11;99926.31;4535903;28;20037;-62
2023/07/02 09:10:25;;;;;;;4.00;2.55;;;;;;;23.27;39.27;99923.91;4534789;28;20041;-62
2023/07/02 09:12:36;;;;;;;4.32;2.85;;;;;;;23.26;40.14;99922.28;4536072;28;20041;-62
2023/07/02 09:15:06;;;;;;;3.90;2.65;;;;;;;23.26;40.05;99936.66;4550461;28;20378;-62
2023/07/02 09:17:16;;;;;;;4.15;2.72;;;;;;;23.26;39.83;99928.03;4533895;28;20037;-62
2023/07/02 09:19:26;;;;;;;4.00;2.50;;;;;;;23.26;40.24;99925.97;4535236;28;20041;-62
2023/07/02 09:21:45;;;;;;;3.67;2.42;;;;;;;23.24;39.88;99933.31;4535307;28;20043;-62
2023/07/02 09:23:55;;;;;;;4.05;2.53;;;;;;;23.25;40.41;99927.19;4533380;28;20268;-62
2023/07/02 09:26:06;;;;;;;4.45;2.72;;;;;;;23.27;39.29;99938.31;4534928;28;20481;-62
2023/07/02 09:28:18;;;;;;;4.03;2.50;;;;;;;23.27;39.28;99935.44;4534787;28;20091;-62
2023/07/02 09:30:29;;;;;;;4.65;2.65;;;;;;;23.28;39.27;99934.19;4534677;28;20033;-62
2023/07/02 09:32:40;;;;;;;3.97;2.33;;;;;;;23.28;39.27;99931.31;4551214;28;20118;-62
2023/07/02 09:34:50;;;;;;;3.20;2.50;;;;;;;23.26;40.37;99934.59;4535682;28;21007;-62
2023/07/02 09:37:03;;;;;;;3.58;2.40;;;;;;;23.23;40.42;99929.63;4535455;28;20024;-62
2023/07/02 09:39:18;;;;;;;3.90;2.70;;;;;;;23.22;39.30;99935.78;4535755;28;20024;-62
2023/07/02 09:41:29;;;;;;;3.73;2.53;;;;;;;23.23;38.49;99929.63;4535939;28;20041;-62
2023/07/02 09:43:41;;;;;;;3.42;2.53;;;;;;;23.26;38.34;99933.78;4537088;28;20037;-62
2023/07/02 09:45:56;;;;;;;4.35;2.70;;;;;;;23.26;37.35;99940.34;4535233;28;20069;-62
2023/07/02 09:48:06;;;;;;;3.65;2.40;;;;;;;23.26;37.20;99939.56;4534298;28;20115;-62
2023/07/02 09:50:18;;;;;;;3.58;2.53;;;;;;;23.22;38.02;99932.91;4535278;28;20557;-62
2023/07/02 09:52:29;;;;;;;4.13;2.70;;;;;;;23.27;38.49;99941.19;4535209;28;20614;-62
2023/07/02 09:54:41;;;;;;;3.75;2.45;;;;;;;23.24;39.05;99937.03;4535678;28;20035;-62
2023/07/02 09:56:52;;;;;;;4.07;2.72;;;;;;;23.23;38.89;99937.44;4535552;28;20507;-62
2023/07/02 09:59:02;;;;;;;2.75;1.92;;;;;;;23.20;42.45;99939.06;4522763;28;20492;-62
2023/07/02 10:01:41;;;;;;;2.95;2.10;;;;;;;23.24;41.65;99954.31;4535649;28;20052;-62
2023/07/02 10:03:51;;;;;;;4.57;2.65;;;;;;;23.21;42.65;99942.78;4532277;28;20520;-62
2023/07/02 10:12:31;;;;;;;4.38;2.50;;;;;;;23.19;42.42;99959.63;4535850;28;20780;-62
2023/07/02 10:14:43;;;;;;;4.47;2.78;;;;;;;23.20;40.91;99967.84;4535226;28;20025;-62
2023/07/02 10:16:56;;;;;;;4.10;2.58;;;;;;;23.18;42.12;99967.41;4535483;28;20649;-62
2023/07/02 10:19:13;;;;;;;4.68;2.50;;;;;;;23.18;42.26;99966.59;4534882;28;20109;-62
2023/07/02 10:21:24;;;;;;;;;;;;;;;23.19;40.02;99957.56;4535420;28;20041;-62
2023/07/02 10:23:35;;;;;;;4.32;2.88;;;;;;;23.06;39.77;99941.84;4536040;28;19917;-62
2023/07/02 10:25:46;;;;;;;3.35;2.08;;;;;;;23.19;40.45;99957.56;4533423;28;20040;-62